Time;durP1;ratioP1;P1;durP2;ratioP2;P2;SDS_P1;SDS_P2;PMS_P1;PMS_P2;Temp;Humidity;BMP_temperature;BMP_pressure;BME280_temperature;BME280_humidity;BME280_pressure;Samples;Min_cycle;Max_cycle;Signal;HPM_P1;HPM_P2
2021/05/27 00:02:19;;;;;;;9.23;3.58;;;;;;;;;;5057264;28;20041;-75
2021/05/27 00:04:45;;;;;;;9.20;3.90;;;;;;;;;;5057935;28;20086;-75
2021/05/27 00:07:11;;;;;;;8.68;4.18;;;;;;;;;;5056950;28;20363;-74
2021/05/27 00:09:38;;;;;;;8.00;4.10;;;;;;;;;;5057880;28;20399;-74
2021/05/27 00:12:04;;;;;;;9.68;4.25;;;;;;;;;;5057531;28;20100;-74
2021/05/27 00:14:30;;;;;;;9.63;4.82;;;;;;;;;;5057846;28;20032;-74
2021/05/27 00:16:56;;;;;;;8.20;4.15;;;;;;;;;;5057745;28;20430;-74
2021/05/27 00:19:22;;;;;;;7.63;4.43;;;;;;;;;;5056351;28;20060;-75
2021/05/27 00:21:48;;;;;;;10.10;4.05;;;;;;;;;;5057893;28;20025;-74
2021/05/27 00:24:14;;;;;;;10.85;4.68;;;;;;;;;;5057661;28;20025;-75
2021/05/27 00:26:41;;;;;;;9.68;3.72;;;;;;;;;;5057737;28;20025;-75
2021/05/27 00:29:08;;;;;;;6.85;4.18;;;;;;;;;;5057502;28;20021;-74
2021/05/27 00:31:34;;;;;;;6.53;3.90;;;;;;;;;;5057532;28;20063;-74
2021/05/27 00:34:01;;;;;;;6.95;3.90;;;;;;;;;;5057355;28;20049;-74
2021/05/27 00:36:27;;;;;;;8.85;4.00;;;;;;;;;;5057378;28;20017;-74
2021/05/27 00:38:53;;;;;;;5.53;4.18;;;;;;;;;;5056313;28;20029;-75
2021/05/27 00:41:19;;;;;;;7.28;4.28;;;;;;;;;;5057507;28;20025;-74
2021/05/27 00:43:45;;;;;;;10.35;4.32;;;;;;;;;;5057286;28;20036;-75
2021/05/27 00:46:11;;;;;;;7.60;3.88;;;;;;;;;;5057176;28;20029;-74
2021/05/27 00:48:59;;;;;;;7.45;3.80;;;;;;;;;;5057119;28;20056;-75
2021/05/27 00:51:23;;;;;;;5.80;3.25;;;;;;;;;;5057059;28;20029;-74
2021/05/27 00:53:50;;;;;;;5.78;3.53;;;;;;;;;;5056885;28;20021;-74
2021/05/27 00:56:16;;;;;;;8.80;3.70;;;;;;;;;;5057099;28;20448;-75
2021/05/27 00:58:45;;;;;;;6.72;3.80;;;;;;;;;;5057279;28;20025;-75
2021/05/27 01:01:11;;;;;;;6.20;3.47;;;;;;;;;;5057140;28;20045;-75
2021/05/27 01:03:37;;;;;;;5.97;3.80;;;;;;;;;;5057019;28;20410;-75
2021/05/27 01:06:03;;;;;;;6.32;3.80;;;;;;;;;;5056986;28;20413;-75
2021/05/27 01:08:30;;;;;;;5.65;3.80;;;;;;;;;;5057201;28;20021;-74
2021/05/27 01:10:56;;;;;;;8.50;4.05;;;;;;;;;;5057005;28;20039;-75
2021/05/27 01:13:24;;;;;;;6.03;3.95;;;;;;;;;;5057081;28;20013;-75
2021/05/27 01:15:51;;;;;;;5.63;3.60;;;;;;;;;;5056863;28;20021;-75
2021/05/27 01:18:18;;;;;;;9.65;3.10;;;;;;;;;;5056773;28;20131;-74
2021/05/27 01:20:46;;;;;;;5.20;3.53;;;;;;;;;;5056658;28;20187;-75
2021/05/27 01:23:13;;;;;;;6.55;3.08;;;;;;;;;;5055833;28;20029;-75
2021/05/27 01:25:39;;;;;;;7.93;3.70;;;;;;;;;;5056842;28;20020;-75
2021/05/27 01:28:06;;;;;;;7.60;3.97;;;;;;;;;;5056821;28;20052;-75
2021/05/27 01:30:32;;;;;;;7.43;3.40;;;;;;;;;;5056802;28;20050;-75
2021/05/27 01:32:58;;;;;;;7.00;3.63;;;;;;;;;;5056725;28;20025;-74
2021/05/27 01:35:25;;;;;;;6.70;3.35;;;;;;;;;;5056851;28;20021;-75
2021/05/27 01:37:52;;;;;;;6.07;3.50;;;;;;;;;;5055745;28;20037;-75
2021/05/27 01:40:19;;;;;;;8.07;3.72;;;;;;;;;;5056794;28;20021;-74
2021/05/27 01:42:45;;;;;;;11.18;3.72;;;;;;;;;;5056557;28;20406;-75
2021/05/27 01:45:12;;;;;;;8.32;4.07;;;;;;;;;;5056772;28;20021;-75
2021/05/27 01:47:38;;;;;;;9.57;3.70;;;;;;;;;;5056676;28;20112;-75
2021/05/27 01:50:05;;;;;;;9.40;4.18;;;;;;;;;;5056281;28;20032;-75
2021/05/27 01:52:31;;;;;;;13.77;3.90;;;;;;;;;;5055199;28;20029;-75
2021/05/27 01:54:57;;;;;;;5.00;2.92;;;;;;;;;;5056517;28;20056;-74
2021/05/27 01:57:23;;;;;;;7.85;3.40;;;;;;;;;;5056492;28;20025;-75
2021/05/27 01:59:49;;;;;;;4.72;2.70;;;;;;;;;;5056350;28;20033;-75
2021/05/27 02:02:15;;;;;;;5.28;2.47;;;;;;;;;;5055655;28;20128;-75
2021/05/27 02:04:41;;;;;;;3.55;2.30;;;;;;;;;;5056331;28;20021;-75
2021/05/27 02:07:08;;;;;;;5.80;2.42;;;;;;;;;;5059078;28;20028;-74
2021/05/27 02:09:34;;;;;;;4.55;2.28;;;;;;;;;;5060155;28;20116;-75
2021/05/27 02:12:00;;;;;;;5.60;2.17;;;;;;;;;;5060135;28;20024;-75
2021/05/27 02:14:27;;;;;;;5.60;2.15;;;;;;;;;;5060066;28;20029;-75
2021/05/27 02:16:53;;;;;;;4.57;2.40;;;;;;;;;;5060085;28;20029;-75
2021/05/27 02:19:19;;;;;;;5.70;2.70;;;;;;;;;;5059716;28;20127;-75
2021/05/27 02:21:46;;;;;;;6.68;2.58;;;;;;;;;;5060194;28;20025;-75
2021/05/27 02:24:12;;;;;;;4.13;2.17;;;;;;;;;;5060163;28;20025;-75
2021/05/27 02:26:38;;;;;;;4.40;2.40;;;;;;;;;;5059926;28;20025;-75
2021/05/27 02:29:05;;;;;;;7.80;2.53;;;;;;;;;;5059723;28;20025;-75
2021/05/27 02:31:31;;;;;;;6.57;2.20;;;;;;;;;;5059761;28;20048;-75
2021/05/27 02:33:57;;;;;;;6.57;2.20;;;;;;;;;;5059638;28;20350;-75
2021/05/27 02:36:23;;;;;;;4.53;2.70;;;;;;;;;;5059670;28;20021;-75
2021/05/27 02:38:50;;;;;;;5.75;2.35;;;;;;;;;;5059717;28;20466;-75
2021/05/27 02:41:17;;;;;;;6.00;2.28;;;;;;;;;;5059820;28;20029;-75
2021/05/27 02:43:43;;;;;;;7.50;2.30;;;;;;;;;;5059570;28;20017;-75
2021/05/27 02:46:09;;;;;;;7.50;2.08;;;;;;;;;;5059657;28;20025;-75
2021/05/27 02:48:35;;;;;;;3.92;1.88;;;;;;;;;;5059177;28;20021;-75
2021/05/27 02:51:02;;;;;;;2.90;1.80;;;;;;;;;;5059367;28;20357;-74
2021/05/27 02:53:28;;;;;;;11.20;3.40;;;;;;;;;;5059398;28;20032;-75
2021/05/27 02:55:54;;;;;;;8.45;4.47;;;;;;;;;;5059590;28;20037;-74
2021/05/27 02:58:20;;;;;;;17.15;7.35;;;;;;;;;;5059394;28;20377;-74
2021/05/27 03:00:47;;;;;;;10.38;5.70;;;;;;;;;;5059382;28;20098;-75
2021/05/27 03:03:15;;;;;;;5.72;2.90;;;;;;;;;;5059233;28;20052;-74
2021/05/27 03:05:42;;;;;;;4.28;2.00;;;;;;;;;;5059332;28;20327;-74
2021/05/27 03:08:08;;;;;;;8.43;2.55;;;;;;;;;;5059117;28;20021;-75
2021/05/27 03:10:34;;;;;;;7.03;2.28;;;;;;;;;;5059044;28;20032;-75
2021/05/27 03:13:00;;;;;;;12.18;2.53;;;;;;;;;;5059020;28;20104;-75
2021/05/27 03:15:26;;;;;;;13.57;3.40;;;;;;;;;;5059055;28;20035;-74
2021/05/27 03:17:52;;;;;;;8.68;2.60;;;;;;;;;;5057676;28;20044;-75
2021/05/27 03:20:18;;;;;;;9.45;2.75;;;;;;;;;;5058748;28;20049;-75
2021/05/27 03:22:44;;;;;;;8.82;2.88;;;;;;;;;;5057837;28;20029;-75
2021/05/27 03:25:11;;;;;;;8.35;3.47;;;;;;;;;;5058783;28;20028;-75
2021/05/27 03:27:37;;;;;;;16.55;7.22;;;;;;;;;;5058979;28;20418;-75
2021/05/27 03:30:04;;;;;;;14.68;8.68;;;;;;;;;;5058667;28;20319;-75
2021/05/27 03:32:30;;;;;;;14.30;9.30;;;;;;;;;;5058688;28;20025;-75
2021/05/27 03:34:56;;;;;;;16.00;7.90;;;;;;;;;;5058441;28;20029;-75
2021/05/27 03:37:22;;;;;;;13.10;4.65;;;;;;;;;;5058546;28;20024;-75
2021/05/27 03:42:33;;;;;;;8.88;2.80;;;;;;;;;;5058456;28;20083;-75
2021/05/27 03:44:59;;;;;;;13.90;3.75;;;;;;;;;;5057419;28;20433;-75
2021/05/27 03:47:25;;;;;;;11.38;3.38;;;;;;;;;;5058386;28;20021;-75
2021/05/27 03:49:51;;;;;;;9.85;3.75;;;;;;;;;;5057163;28;20135;-75
2021/05/27 03:52:17;;;;;;;10.88;4.38;;;;;;;;;;5058052;28;20407;-75
2021/05/27 03:54:45;;;;;;;11.98;5.03;;;;;;;;;;5058315;28;20025;-75
2021/05/27 03:57:11;;;;;;;9.07;4.35;;;;;;;;;;5058259;28;20021;-75
2021/05/27 04:02:22;;;;;;;10.45;3.90;;;;;;;;;;5057611;28;20040;-75
2021/05/27 04:07:33;;;;;;;9.25;3.60;;;;;;;;;;5058247;28;20106;-75
2021/05/27 04:09:59;;;;;;;6.95;3.08;;;;;;;;;;5057676;28;20033;-75
2021/05/27 04:12:45;;;;;;;6.93;3.05;;;;;;;;;;5057754;28;20053;-75
2021/05/27 04:15:21;;;;;;;11.85;2.90;;;;;;;;;;5057817;28;20017;-75
2021/05/27 04:17:55;;;;;;;9.40;3.00;;;;;;;;;;5057880;28;20293;-75
2021/05/27 04:20:22;;;;;;;7.72;2.83;;;;;;;;;;5057559;28;20045;-75
2021/05/27 04:22:48;;;;;;;6.82;2.53;;;;;;;;;;5057824;28;20055;-75
2021/05/27 04:36:28;;;;;;;7.97;2.75;;;;;;;;;;5114925;27;20392;-76
2021/05/27 04:38:54;;;;;;;7.03;3.70;;;;;;;;;;5114983;28;20313;-76
2021/05/27 04:41:21;;;;;;;9.32;2.88;;;;;;;;;;5114612;28;20016;-76
2021/05/27 04:43:53;;;;;;;8.43;3.00;;;;;;;;;;5114605;28;20435;-77
2021/05/27 04:46:19;;;;;;;5.40;2.90;;;;;;;;;;5114525;28;20031;-77
2021/05/27 04:48:45;;;;;;;6.65;2.58;;;;;;;;;;5113530;28;20031;-77
2021/05/27 04:51:11;;;;;;;6.43;2.33;;;;;;;;;;5114392;28;20020;-77
2021/05/27 04:53:37;;;;;;;7.45;2.70;;;;;;;;;;5114429;28;20448;-77
2021/05/27 04:56:04;;;;;;;8.93;2.92;;;;;;;;;;5113345;28;20055;-76
2021/05/27 04:58:31;;;;;;;7.45;3.13;;;;;;;;;;5114427;28;20016;-76
2021/05/27 05:00:58;;;;;;;8.55;2.70;;;;;;;;;;5114259;28;20047;-76
2021/05/27 05:03:24;;;;;;;6.68;2.78;;;;;;;;;;5113218;28;20107;-76
2021/05/27 05:05:50;;;;;;;6.47;2.80;;;;;;;;;;5114402;28;20028;-76
2021/05/27 05:08:16;;;;;;;8.45;2.70;;;;;;;;;;5114309;28;20027;-76
2021/05/27 05:10:43;;;;;;;10.40;3.15;;;;;;;;;;5114375;28;20038;-76
2021/05/27 05:13:09;;;;;;;8.25;3.55;;;;;;;;;;5114245;28;20031;-76
2021/05/27 05:15:37;;;;;;;8.15;3.00;;;;;;;;;;5113828;28;20329;-79
2021/05/27 05:18:04;;;;;;;20.00;6.30;;;;;;;;;;5113913;28;20358;-77
2021/05/27 05:20:35;;;;;;;14.65;6.57;;;;;;;;;;5114068;28;20150;-76
2021/05/27 05:23:01;;;;;;;6.93;4.18;;;;;;;;;;5114048;28;20065;-77
2021/05/27 05:25:28;;;;;;;13.68;6.75;;;;;;;;;;5113968;28;20027;-77
2021/05/27 05:27:54;;;;;;;19.45;4.80;;;;;;;;;;5113742;28;20020;-76
2021/05/27 05:30:21;;;;;;;10.68;5.25;;;;;;;;;;5113675;28;20480;-77
2021/05/27 05:32:48;;;;;;;13.73;4.57;;;;;;;;;;5113913;28;20031;-77
2021/05/27 05:35:15;;;;;;;10.15;4.22;;;;;;;;;;5112265;28;20036;-77
2021/05/27 05:37:41;;;;;;;9.32;4.60;;;;;;;;;;5098557;28;20046;-77
2021/05/27 05:40:11;;;;;;;10.18;4.30;;;;;;;;;;5099101;28;20028;-77
2021/05/27 05:42:37;;;;;;;9.43;4.32;;;;;;;;;;5099125;28;20360;-76
2021/05/27 05:45:04;;;;;;;7.40;4.90;;;;;;;;;;5099856;28;20036;-76
2021/05/27 05:47:30;;;;;;;12.90;4.00;;;;;;;;;;5099899;28;20055;-76
2021/05/27 05:49:56;;;;;;;14.00;5.15;;;;;;;;;;5100059;28;20062;-77
2021/05/27 05:52:23;;;;;;;10.75;5.75;;;;;;;;;;5099977;28;20024;-76
2021/05/27 05:54:49;;;;;;;10.13;6.65;;;;;;;;;;5098863;28;20036;-77
2021/05/27 05:57:15;;;;;;;17.13;9.63;;;;;;;;;;5099786;28;20024;-76
2021/05/27 05:59:41;;;;;;;16.70;9.20;;;;;;;;;;5098620;28;20395;-77
2021/05/27 06:02:07;;;;;;;12.15;7.25;;;;;;;;;;5099850;28;20310;-75
2021/05/27 06:04:34;;;;;;;14.75;6.50;;;;;;;;;;5099625;28;20020;-75
2021/05/27 06:07:00;;;;;;;13.50;6.00;;;;;;;;;;5099581;28;20036;-75
2021/05/27 06:09:26;;;;;;;6.72;3.35;;;;;;;;;;5099449;28;20016;-75
2021/05/27 06:11:52;;;;;;;17.55;8.40;;;;;;;;;;5099361;28;20405;-75
2021/05/27 06:14:19;;;;;;;19.00;12.23;;;;;;;;;;5099214;28;20047;-75
2021/05/27 06:16:45;;;;;;;8.32;2.65;;;;;;;;;;5098958;28;20103;-75
2021/05/27 06:19:11;;;;;;;14.02;5.88;;;;;;;;;;5098567;28;20040;-76
2021/05/27 06:21:37;;;;;;;12.27;7.07;;;;;;;;;;5099535;28;20024;-76
2021/05/27 06:24:03;;;;;;;8.82;5.05;;;;;;;;;;5099324;28;20020;-76
2021/05/27 06:26:31;;;;;;;12.80;6.10;;;;;;;;;;5099125;28;20035;-76
2021/05/27 06:28:57;;;;;;;11.45;6.65;;;;;;;;;;5099113;28;20035;-76
2021/05/27 06:31:23;;;;;;;27.40;18.13;;;;;;;;;;5099030;28;20024;-75
2021/05/27 06:33:49;;;;;;;27.50;18.88;;;;;;;;;;5099033;28;20024;-75
2021/05/27 06:36:16;;;;;;;10.27;6.85;;;;;;;;;;5098763;28;20050;-75
2021/05/27 06:38:42;;;;;;;13.52;7.80;;;;;;;;;;5098936;28;20081;-74
2021/05/27 06:41:08;;;;;;;32.55;21.23;;;;;;;;;;5098784;28;20024;-78
2021/05/27 06:43:35;;;;;;;31.98;16.08;;;;;;;;;;5098852;28;20352;-77
2021/05/27 06:46:01;;;;;;;24.50;14.10;;;;;;;;;;5097691;28;20031;-77
2021/05/27 06:48:27;;;;;;;177.15;18.45;;;;;;;;;;5097701;28;20038;-77
2021/05/27 06:50:53;;;;;;;17.13;4.32;;;;;;;;;;5098778;28;20061;-76
2021/05/27 06:53:19;;;;;;;16.50;3.45;;;;;;;;;;5098800;28;20026;-78
2021/05/27 06:55:46;;;;;;;17.02;4.18;;;;;;;;;;5098490;28;20025;-79
2021/05/27 06:58:13;;;;;;;8.90;4.13;;;;;;;;;;5098612;28;20103;-78
2021/05/27 07:00:40;;;;;;;18.80;4.68;;;;;;;;;;5098337;28;20050;-79
2021/05/27 07:03:07;;;;;;;13.43;5.18;;;;;;;;;;5098474;28;20031;-79
2021/05/27 07:05:33;;;;;;;97.10;15.48;;;;;;;;;;5098442;28;20020;-76
2021/05/27 07:08:01;;;;;;;10.85;4.38;;;;;;;;;;5098590;28;20040;-76
2021/05/27 07:10:29;;;;;;;9.40;2.38;;;;;;;;;;5100200;28;20158;-77
2021/05/27 07:12:57;;;;;;;24.88;5.00;;;;;;;;;;5100648;28;20418;-76
2021/05/27 07:15:24;;;;;;;4.75;1.95;;;;;;;;;;5100873;28;20032;-81
2021/05/27 07:17:50;;;;;;;5.40;2.00;;;;;;;;;;5102090;28;20096;-77
2021/05/27 07:20:17;;;;;;;23.42;2.83;;;;;;;;;;5102195;28;20031;-81
2021/05/27 07:22:43;;;;;;;72.28;7.10;;;;;;;;;;5103997;28;20012;-79
2021/05/27 07:25:10;;;;;;;45.65;8.75;;;;;;;;;;5102150;28;20111;-79
2021/05/27 07:27:36;;;;;;;32.28;10.30;;;;;;;;;;5101394;28;20020;-79
2021/05/27 07:30:04;;;;;;;12.25;4.25;;;;;;;;;;5101212;28;20182;-79
2021/05/27 07:32:30;;;;;;;22.38;4.55;;;;;;;;;;5100990;28;20028;-79
2021/05/27 07:34:56;;;;;;;19.63;7.15;;;;;;;;;;5100810;28;20043;-79
2021/05/27 07:37:22;;;;;;;11.40;2.40;;;;;;;;;;5100881;28;20092;-80
2021/05/27 07:39:48;;;;;;;20.67;4.50;;;;;;;;;;5100432;28;20291;-79
2021/05/27 07:42:14;;;;;;;20.75;4.60;;;;;;;;;;5100151;28;20020;-79
2021/05/27 07:44:40;;;;;;;16.02;3.25;;;;;;;;;;5100082;28;20059;-79
2021/05/27 07:47:07;;;;;;;17.35;4.20;;;;;;;;;;5099259;28;20077;-79
2021/05/27 07:49:33;;;;;;;7.97;2.22;;;;;;;;;;5097976;28;20032;-79
2021/05/27 07:51:59;;;;;;;6.22;2.42;;;;;;;;;;5096948;28;20046;-78
2021/05/27 07:54:26;;;;;;;17.02;12.57;;;;;;;;;;5096867;28;20064;-79
2021/05/27 07:56:52;;;;;;;5.88;3.50;;;;;;;;;;5099313;28;20024;-79
2021/05/27 07:59:18;;;;;;;5.22;2.10;;;;;;;;;;5099989;28;20043;-78
2021/05/27 08:01:44;;;;;;;4.15;1.30;;;;;;;;;;5097578;28;20028;-79
2021/05/27 08:04:11;;;;;;;4.85;1.10;;;;;;;;;;5098762;28;20577;-79
2021/05/27 08:06:37;;;;;;;1.70;1.15;;;;;;;;;;5097773;28;20040;-79
2021/05/27 08:09:08;;;;;;;5.35;2.20;;;;;;;;;;5098206;28;20059;-78
2021/05/27 08:11:34;;;;;;;24.33;13.40;;;;;;;;;;5097617;28;20195;-78
2021/05/27 08:14:00;;;;;;;144.13;108.35;;;;;;;;;;5097409;28;20093;-79
2021/05/27 08:16:27;;;;;;;53.70;37.90;;;;;;;;;;5097314;28;20024;-79
2021/05/27 08:18:53;;;;;;;6.43;3.65;;;;;;;;;;5097131;28;20020;-78
2021/05/27 08:21:19;;;;;;;6.07;1.90;;;;;;;;;;5097491;28;20054;-78
2021/05/27 08:23:45;;;;;;;6.05;2.58;;;;;;;;;;5095950;28;20062;-78
2021/05/27 08:26:12;;;;;;;21.52;10.98;;;;;;;;;;5097744;28;20020;-78
2021/05/27 08:28:38;;;;;;;7.25;2.40;;;;;;;;;;5096543;28;20118;-78
2021/05/27 08:31:04;;;;;;;5.78;2.63;;;;;;;;;;5097310;28;20023;-78
2021/05/27 08:33:31;;;;;;;9.27;2.38;;;;;;;;;;5096513;28;20417;-77
2021/05/27 08:35:57;;;;;;;5.05;1.70;;;;;;;;;;5098160;28;20131;-78
2021/05/27 08:38:23;;;;;;;5.30;1.48;;;;;;;;;;5097503;28;20028;-81
2021/05/27 08:40:51;;;;;;;4.72;0.98;;;;;;;;;;5097805;28;20024;-79
